Time;durP1;ratioP1;P1;durP2;ratioP2;P2;SDS_P1;SDS_P2;PMS_P1;PMS_P2;Temp;Humidity;BMP_temperature;BMP_pressure;BME280_temperature;BME280_humidity;BME280_pressure;Samples;Min_cycle;Max_cycle;Signal;HPM_P1;HPM_P2
2022/04/10 00:00:53;;;;;;;15.30;3.33;;;;;;;;;;5089924;28;20572;-68
2022/04/10 00:03:19;;;;;;;22.83;3.53;;;;;;;;;;5089774;28;20645;-68
2022/04/10 00:05:45;;;;;;;16.93;3.40;;;;;;;;;;5089945;28;20282;-68
2022/04/10 00:08:12;;;;;;;18.17;4.63;;;;;;;;;;5071337;28;20888;-68
2022/04/10 00:10:38;;;;;;;20.03;4.40;;;;;;;;;;5094043;28;20815;-68
2022/04/10 00:13:04;;;;;;;21.50;3.10;;;;;;;;;;5091373;28;20278;-68
2022/04/10 00:15:30;;;;;;;9.33;3.00;;;;;;;;;;5109695;28;20339;-68
2022/04/10 00:17:56;;;;;;;22.30;5.03;;;;;;;;;;5109834;28;20159;-68
2022/04/10 00:20:22;;;;;;;16.73;4.37;;;;;;;;;;5109979;28;20371;-68
2022/04/10 00:22:48;;;;;;;16.40;3.13;;;;;;;;;;5109366;28;20043;-68
2022/04/10 00:25:15;;;;;;;27.27;5.33;;;;;;;;;;5109256;28;20075;-68
2022/04/10 00:27:41;;;;;;;20.63;5.27;;;;;;;;;;5109580;28;20044;-68
2022/04/10 00:30:11;;;;;;;24.07;4.53;;;;;;;;;;5108516;28;20120;-68
2022/04/10 00:32:37;;;;;;;17.30;4.53;;;;;;;;;;5109968;28;20059;-68
2022/04/10 00:35:05;;;;;;;26.63;5.13;;;;;;;;;;5109304;28;20770;-68
2022/04/10 00:37:31;;;;;;;19.13;3.77;;;;;;;;;;5083520;28;20283;-68
2022/04/10 00:39:57;;;;;;;15.07;5.00;;;;;;;;;;5089182;28;20056;-68
2022/04/10 00:42:30;;;;;;;18.80;4.23;;;;;;;;;;5088919;28;20040;-67
2022/04/10 00:44:56;;;;;;;15.68;3.45;;;;;;;;;;5089122;28;20044;-68
2022/04/10 00:47:22;;;;;;;18.03;3.93;;;;;;;;;;5088844;28;20433;-67
2022/04/10 00:49:48;;;;;;;19.33;4.70;;;;;;;;;;5089127;28;20290;-67
2022/04/10 00:52:15;;;;;;;18.33;4.13;;;;;;;;;;5089184;28;20048;-67
2022/04/10 00:54:41;;;;;;;16.70;3.43;;;;;;;;;;5088276;28;20309;-68
2022/04/10 00:57:07;;;;;;;15.43;3.97;;;;;;;;;;5088888;28;20286;-67
2022/04/10 00:59:33;;;;;;;17.37;3.07;;;;;;;;;;5054329;28;20290;-67
2022/04/10 01:01:59;;;;;;;19.17;3.43;;;;;;;;;;5071029;28;20290;-67
2022/04/10 01:04:25;;;;;;;16.83;3.90;;;;;;;;;;5098646;28;20050;-68
2022/04/10 01:06:52;;;;;;;19.60;4.80;;;;;;;;;;5100834;28;20075;-68
2022/04/10 01:09:20;;;;;;;19.37;4.70;;;;;;;;;;5088491;28;20044;-67
2022/04/10 01:11:46;;;;;;;19.33;3.60;;;;;;;;;;5088908;28;20297;-67
2022/04/10 01:14:13;;;;;;;17.40;3.30;;;;;;;;;;5070166;28;20321;-67
2022/04/10 01:16:41;;;;;;;18.40;4.97;;;;;;;;;;5088479;28;20513;-67
2022/04/10 01:19:07;;;;;;;17.37;4.30;;;;;;;;;;5088771;28;20056;-67
2022/04/10 01:21:38;;;;;;;17.50;4.07;;;;;;;;;;5088484;28;20780;-67
2022/04/10 01:24:04;;;;;;;18.67;4.00;;;;;;;;;;5088114;28;20286;-67
2022/04/10 01:26:31;;;;;;;18.97;5.30;;;;;;;;;;5088750;28;20402;-67
2022/04/10 01:28:58;;;;;;;24.17;4.17;;;;;;;;;;5088665;28;20278;-67
2022/04/10 01:31:24;;;;;;;18.20;3.80;;;;;;;;;;5070353;28;20291;-67
2022/04/10 01:33:50;;;;;;;24.10;5.37;;;;;;;;;;5088757;28;20302;-67
2022/04/10 01:36:17;;;;;;;21.63;4.60;;;;;;;;;;5088328;28;20289;-67
2022/04/10 01:38:45;;;;;;;17.30;4.90;;;;;;;;;;5088295;28;20055;-68
2022/04/10 01:41:14;;;;;;;14.87;3.80;;;;;;;;;;5090983;28;21152;-67
2022/04/10 01:43:46;;;;;;;13.87;3.10;;;;;;;;;;5092133;28;20644;-67
2022/04/10 01:46:15;;;;;;;18.83;3.60;;;;;;;;;;5094703;28;20296;-67
2022/04/10 01:48:41;;;;;;;17.53;3.70;;;;;;;;;;5112982;28;20274;-66
2022/04/10 01:51:08;;;;;;;18.70;4.57;;;;;;;;;;5094251;28;20974;-67
2022/04/10 01:53:34;;;;;;;16.83;3.70;;;;;;;;;;5112044;28;20875;-66
2022/04/10 01:56:01;;;;;;;23.63;4.30;;;;;;;;;;5112178;28;20339;-67
2022/04/10 01:58:26;;;;;;;30.87;5.27;;;;;;;;;;5093696;28;20281;-67
2022/04/10 02:00:52;;;;;;;25.87;4.27;;;;;;;;;;5098165;28;20298;-66
2022/04/10 02:03:19;;;;;;;18.73;4.27;;;;;;;;;;5091880;28;20131;-66
2022/04/10 02:05:45;;;;;;;20.63;3.90;;;;;;;;;;5092068;28;20274;-66
2022/04/10 02:08:10;;;;;;;17.70;4.57;;;;;;;;;;5108337;28;20697;-66
2022/04/10 02:10:36;;;;;;;27.70;4.87;;;;;;;;;;5112264;28;20035;-66
2022/04/10 02:13:03;;;;;;;23.50;4.93;;;;;;;;;;5112240;28;20493;-66
2022/04/10 02:15:29;;;;;;;19.90;4.07;;;;;;;;;;5112311;28;20047;-66
2022/04/10 02:17:55;;;;;;;21.97;4.10;;;;;;;;;;5112022;28;20308;-66
2022/04/10 02:20:21;;;;;;;19.93;4.60;;;;;;;;;;5111708;28;20748;-66
2022/04/10 02:22:47;;;;;;;18.60;4.37;;;;;;;;;;5112122;28;20036;-66
2022/04/10 02:25:13;;;;;;;18.50;4.03;;;;;;;;;;5111826;28;20088;-66
2022/04/10 02:27:39;;;;;;;11.83;3.80;;;;;;;;;;5095830;28;21012;-66
2022/04/10 02:30:06;;;;;;;26.73;5.23;;;;;;;;;;5091242;28;20455;-66
2022/04/10 02:32:32;;;;;;;22.07;4.90;;;;;;;;;;5091170;28;20282;-66
2022/04/10 02:34:58;;;;;;;20.23;3.90;;;;;;;;;;5073138;28;20313;-66
2022/04/10 02:37:24;;;;;;;14.27;3.50;;;;;;;;;;5091229;28;20289;-66
2022/04/10 02:39:50;;;;;;;23.13;3.83;;;;;;;;;;5091442;28;20386;-66
2022/04/10 02:42:16;;;;;;;22.33;3.87;;;;;;;;;;5091339;28;20118;-66
2022/04/10 02:44:42;;;;;;;26.97;5.87;;;;;;;;;;5091214;28;20526;-66
2022/04/10 02:47:08;;;;;;;15.03;3.70;;;;;;;;;;5091251;28;20044;-66
2022/04/10 02:49:34;;;;;;;16.37;4.40;;;;;;;;;;5091140;28;20051;-66
2022/04/10 02:52:00;;;;;;;16.40;4.93;;;;;;;;;;5071687;28;20289;-66
2022/04/10 02:54:26;;;;;;;18.60;3.23;;;;;;;;;;5108050;28;20047;-66
2022/04/10 02:56:52;;;;;;;14.70;3.43;;;;;;;;;;5111463;28;20043;-66
2022/04/10 02:59:18;;;;;;;22.07;4.53;;;;;;;;;;5111052;28;20644;-66
2022/04/10 03:01:44;;;;;;;22.33;4.23;;;;;;;;;;5110881;28;20501;-66
2022/04/10 03:04:10;;;;;;;21.23;3.17;;;;;;;;;;5093381;28;20282;-66
2022/04/10 03:06:36;;;;;;;13.73;3.70;;;;;;;;;;5111117;28;20793;-66
2022/04/10 03:09:02;;;;;;;15.00;3.40;;;;;;;;;;5111134;28;20044;-65
2022/04/10 03:11:28;;;;;;;18.63;4.00;;;;;;;;;;5092977;28;20104;-65
2022/04/10 03:13:54;;;;;;;17.30;4.07;;;;;;;;;;5110823;28;20301;-65
2022/04/10 03:16:20;;;;;;;19.00;3.87;;;;;;;;;;5110828;28;20506;-65
2022/04/10 03:18:46;;;;;;;15.20;3.63;;;;;;;;;;5110849;28;20342;-65
2022/04/10 03:21:12;;;;;;;14.67;3.13;;;;;;;;;;5091762;28;20059;-66
2022/04/10 03:23:38;;;;;;;21.80;4.27;;;;;;;;;;5090108;28;20413;-65
2022/04/10 03:26:04;;;;;;;13.90;3.30;;;;;;;;;;5090277;28;20397;-66
2022/04/10 03:28:30;;;;;;;17.73;3.97;;;;;;;;;;5090634;28;20036;-66
2022/04/10 03:30:59;;;;;;;13.97;3.57;;;;;;;;;;5090213;28;20506;-66
2022/04/10 03:33:25;;;;;;;21.00;3.63;;;;;;;;;;5090159;28;20064;-66
2022/04/10 03:35:52;;;;;;;16.23;4.03;;;;;;;;;;5089906;28;20393;-66
2022/04/10 03:38:18;;;;;;;17.83;5.27;;;;;;;;;;5109179;28;20534;-66
2022/04/10 03:40:44;;;;;;;15.83;3.33;;;;;;;;;;5110461;28;20321;-66
2022/04/10 03:43:11;;;;;;;22.40;4.27;;;;;;;;;;5110438;28;20046;-66
2022/04/10 03:45:38;;;;;;;18.43;3.80;;;;;;;;;;5092356;28;20044;-66
2022/04/10 03:48:04;;;;;;;19.33;4.23;;;;;;;;;;5108068;28;20402;-66
2022/04/10 03:50:30;;;;;;;18.30;3.80;;;;;;;;;;5110318;28;20284;-66
2022/04/10 03:52:56;;;;;;;12.33;3.40;;;;;;;;;;5110314;28;20763;-66
2022/04/10 03:55:22;;;;;;;18.67;5.17;;;;;;;;;;5110269;28;20039;-66
2022/04/10 03:57:48;;;;;;;17.47;5.67;;;;;;;;;;5110004;28;20075;-66
2022/04/10 04:00:14;;;;;;;12.40;3.57;;;;;;;;;;5104984;28;20342;-66
2022/04/10 04:02:41;;;;;;;20.23;3.77;;;;;;;;;;5090130;28;20842;-66
2022/04/10 04:05:08;;;;;;;23.73;4.33;;;;;;;;;;5089986;28;21086;-67
2022/04/10 04:07:34;;;;;;;28.83;5.03;;;;;;;;;;5090036;28;20293;-68
2022/04/10 04:10:00;;;;;;;11.73;3.53;;;;;;;;;;5089788;28;20079;-67
2022/04/10 04:12:26;;;;;;;17.27;3.93;;;;;;;;;;5090024;28;20325;-67
2022/04/10 04:14:52;;;;;;;12.30;4.10;;;;;;;;;;5089403;28;20109;-67
2022/04/10 04:17:18;;;;;;;19.23;5.43;;;;;;;;;;5086505;28;20047;-67
2022/04/10 04:19:46;;;;;;;13.50;3.53;;;;;;;;;;5107803;28;20047;-67
2022/04/10 04:22:12;;;;;;;12.63;2.83;;;;;;;;;;5089152;28;20510;-67
2022/04/10 04:24:38;;;;;;;19.70;4.47;;;;;;;;;;5089257;28;20330;-67
2022/04/10 04:27:04;;;;;;;14.20;4.20;;;;;;;;;;5089570;28;20123;-67
2022/04/10 04:29:30;;;;;;;14.57;3.57;;;;;;;;;;5089248;28;20052;-67
2022/04/10 04:31:56;;;;;;;17.03;2.93;;;;;;;;;;5089296;28;20341;-67
2022/04/10 04:34:23;;;;;;;11.20;2.40;;;;;;;;;;5088518;28;20109;-68
2022/04/10 04:36:49;;;;;;;18.53;3.17;;;;;;;;;;5089412;28;20067;-68
2022/04/10 04:39:15;;;;;;;10.57;3.70;;;;;;;;;;5089001;28;20285;-68
2022/04/10 04:41:41;;;;;;;13.27;3.17;;;;;;;;;;5089032;28;20684;-67
2022/04/10 04:44:07;;;;;;;16.30;3.27;;;;;;;;;;5089057;28;20278;-67
2022/04/10 04:46:33;;;;;;;17.83;3.40;;;;;;;;;;5088714;28;20044;-67
2022/04/10 04:48:59;;;;;;;10.13;3.17;;;;;;;;;;5089161;28;20278;-68
2022/04/10 04:51:25;;;;;;;12.00;2.60;;;;;;;;;;5073805;28;20122;-67
2022/04/10 04:53:51;;;;;;;5.57;2.27;;;;;;;;;;5109117;28;20292;-67
2022/04/10 04:56:17;;;;;;;11.87;2.30;;;;;;;;;;5108946;28;20277;-67
2022/04/10 04:58:43;;;;;;;15.87;3.90;;;;;;;;;;5104451;28;20036;-67
2022/04/10 05:01:09;;;;;;;5.13;2.20;;;;;;;;;;5101452;28;20176;-68
2022/04/10 05:03:35;;;;;;;9.77;3.10;;;;;;;;;;5109150;28;20334;-67
2022/04/10 05:06:01;;;;;;;14.23;3.30;;;;;;;;;;5086850;28;20298;-67
2022/04/10 05:08:27;;;;;;;14.97;3.57;;;;;;;;;;5070642;28;20131;-67
2022/04/10 05:10:53;;;;;;;16.83;3.80;;;;;;;;;;5102455;28;20126;-67
2022/04/10 05:13:19;;;;;;;9.47;2.73;;;;;;;;;;5090485;28;20134;-67
2022/04/10 05:15:46;;;;;;;9.37;2.27;;;;;;;;;;5098341;28;20702;-67
2022/04/10 05:18:13;;;;;;;13.03;1.90;;;;;;;;;;5100713;28;20047;-67
2022/04/10 05:20:40;;;;;;;19.57;5.03;;;;;;;;;;5103962;28;20051;-67
2022/04/10 05:23:06;;;;;;;10.57;2.07;;;;;;;;;;5097360;28;20108;-67
2022/04/10 05:25:32;;;;;;;8.73;2.20;;;;;;;;;;5082660;28;20285;-67
2022/04/10 05:27:58;;;;;;;5.87;1.90;;;;;;;;;;5097751;28;20074;-68
2022/04/10 05:30:24;;;;;;;10.80;1.93;;;;;;;;;;5102717;28;20831;-68
2022/04/10 05:32:50;;;;;;;8.83;1.63;;;;;;;;;;5094781;28;20043;-68
2022/04/10 05:35:16;;;;;;;6.83;2.20;;;;;;;;;;5098369;28;20059;-68
2022/04/10 05:37:42;;;;;;;8.97;1.50;;;;;;;;;;5103664;28;20082;-67
2022/04/10 05:40:08;;;;;;;5.67;2.20;;;;;;;;;;5103501;28;20509;-67
2022/04/10 05:42:38;;;;;;;8.03;1.30;;;;;;;;;;5081441;28;20095;-68
2022/04/10 05:45:05;;;;;;;7.77;2.17;;;;;;;;;;5081164;28;20052;-68
2022/04/10 05:47:31;;;;;;;6.10;1.57;;;;;;;;;;5108815;28;20068;-67
2022/04/10 05:49:57;;;;;;;7.43;1.80;;;;;;;;;;5091955;28;20497;-68
2022/04/10 05:52:23;;;;;;;17.13;2.90;;;;;;;;;;5091947;28;20480;-65
2022/04/10 05:54:49;;;;;;;7.83;1.63;;;;;;;;;;5099752;28;20119;-67
2022/04/10 05:57:16;;;;;;;8.30;1.60;;;;;;;;;;5098179;28;20044;-68
2022/04/10 05:59:41;;;;;;;9.87;1.87;;;;;;;;;;5095324;28;20040;-68
2022/04/10 06:02:07;;;;;;;7.80;2.10;;;;;;;;;;5106407;28;20427;-67
2022/04/10 06:04:33;;;;;;;7.07;2.23;;;;;;;;;;5100476;28;20036;-67
2022/04/10 06:06:59;;;;;;;7.30;1.83;;;;;;;;;;5102077;28;20089;-68
2022/04/10 06:09:26;;;;;;;6.63;1.73;;;;;;;;;;5096717;28;20051;-67
2022/04/10 06:11:52;;;;;;;7.33;1.70;;;;;;;;;;5108038;28;20047;-67
2022/04/10 06:14:18;;;;;;;4.27;1.43;;;;;;;;;;5105707;28;20054;-67
2022/04/10 06:16:43;;;;;;;8.27;2.00;;;;;;;;;;5101279;28;20528;-67
2022/04/10 06:19:09;;;;;;;7.03;1.97;;;;;;;;;;5103347;28;20071;-67
2022/04/10 06:21:35;;;;;;;8.47;1.63;;;;;;;;;;5076656;28;20790;-67
2022/04/10 06:24:01;;;;;;;7.87;1.83;;;;;;;;;;5090953;28;20051;-67
2022/04/10 06:26:27;;;;;;;3.87;1.20;;;;;;;;;;5096166;28;20378;-68
2022/04/10 06:28:53;;;;;;;10.23;2.27;;;;;;;;;;5082617;28;20387;-67
2022/04/10 06:31:19;;;;;;;7.00;1.80;;;;;;;;;;5090609;28;20051;-67
2022/04/10 06:33:46;;;;;;;8.77;1.73;;;;;;;;;;5084539;28;20888;-67
2022/04/10 06:36:12;;;;;;;12.13;1.97;;;;;;;;;;5090548;28;20421;-67
2022/04/10 06:38:38;;;;;;;10.57;1.57;;;;;;;;;;5099081;28;20044;-67
2022/04/10 06:41:04;;;;;;;9.57;1.77;;;;;;;;;;5101996;28;20051;-67
2022/04/10 06:43:30;;;;;;;6.33;1.70;;;;;;;;;;5105163;28;20119;-67
2022/04/10 06:45:56;;;;;;;7.70;1.73;;;;;;;;;;5091246;28;20048;-67
2022/04/10 06:48:22;;;;;;;5.93;1.97;;;;;;;;;;5106313;28;20501;-67
2022/04/10 06:50:49;;;;;;;7.03;1.50;;;;;;;;;;5098167;28;20040;-67
2022/04/10 06:53:15;;;;;;;5.03;1.53;;;;;;;;;;5097818;28;20091;-67
2022/04/10 06:55:41;;;;;;;5.00;1.70;;;;;;;;;;5090719;28;20059;-67
2022/04/10 06:58:07;;;;;;;4.93;1.63;;;;;;;;;;5090291;28;20043;-67
2022/04/10 07:00:33;;;;;;;5.83;1.50;;;;;;;;;;5099182;28;20044;-67
2022/04/10 07:03:01;;;;;;;5.30;1.47;;;;;;;;;;5106058;28;20103;-67
2022/04/10 07:05:27;;;;;;;7.70;1.50;;;;;;;;;;5102912;28;20109;-67
2022/04/10 07:07:54;;;;;;;6.57;1.50;;;;;;;;;;5094286;28;20074;-67
2022/04/10 07:10:21;;;;;;;4.57;1.67;;;;;;;;;;5098982;28;20175;-67
2022/04/10 07:12:47;;;;;;;10.07;1.80;;;;;;;;;;5098888;28;20079;-67
2022/04/10 07:15:13;;;;;;;8.00;1.53;;;;;;;;;;5107552;28;20146;-67
2022/04/10 07:17:39;;;;;;;7.13;1.50;;;;;;;;;;5096445;28;20047;-67
2022/04/10 07:20:05;;;;;;;7.70;1.77;;;;;;;;;;5071812;28;20044;-67
2022/04/10 07:25:16;;;;;;;9.43;2.93;;;;;;;;;;5071699;28;20127;-67
2022/04/10 07:27:42;;;;;;;11.03;1.77;;;;;;;;;;5085327;28;20040;-67
2022/04/10 07:30:08;;;;;;;8.97;1.77;;;;;;;;;;5093185;28;20044;-67
2022/04/10 07:32:34;;;;;;;9.87;2.27;;;;;;;;;;5079545;28;20455;-68
2022/04/10 07:35:03;;;;;;;11.17;2.27;;;;;;;;;;5089646;28;20040;-67
2022/04/10 07:37:30;;;;;;;12.80;2.00;;;;;;;;;;5089576;28;20075;-67
2022/04/10 07:39:55;;;;;;;9.83;2.10;;;;;;;;;;5089970;28;20043;-67
2022/04/10 07:42:22;;;;;;;7.50;1.53;;;;;;;;;;5086227;28;20047;-67
2022/04/10 07:44:48;;;;;;;10.37;2.67;;;;;;;;;;5089407;28;20524;-67
2022/04/10 07:47:25;;;;;;;8.10;3.00;;;;;;;;;;5097309;28;20059;-67
2022/04/10 07:49:53;;;;;;;4.90;1.53;;;;;;;;;;5089820;28;20663;-68
2022/04/10 07:52:19;;;;;;;9.53;3.20;;;;;;;;;;5089967;28;20056;-67
2022/04/10 07:54:45;;;;;;;9.20;1.83;;;;;;;;;;5097109;28;20040;-68
2022/04/10 07:57:11;;;;;;;11.87;2.37;;;;;;;;;;5097100;28;20734;-67
2022/04/10 07:59:37;;;;;;;10.63;1.57;;;;;;;;;;5089257;28;20138;-67
2022/04/10 08:02:03;;;;;;;9.57;1.93;;;;;;;;;;5096158;28;20042;-67
2022/04/10 08:04:29;;;;;;;10.10;2.20;;;;;;;;;;5100766;28;20088;-67
2022/04/10 08:06:55;;;;;;;9.57;1.67;;;;;;;;;;5097341;28;20047;-67
2022/04/10 08:09:21;;;;;;;10.63;2.27;;;;;;;;;;5096894;28;20486;-67
2022/04/10 08:11:47;;;;;;;10.73;2.63;;;;;;;;;;5093280;28;20043;-67
2022/04/10 08:14:13;;;;;;;12.23;1.83;;;;;;;;;;5077611;28;20052;-68
2022/04/10 08:16:39;;;;;;;15.17;1.83;;;;;;;;;;5088395;28;20040;-68
2022/04/10 08:19:05;;;;;;;11.23;1.80;;;;;;;;;;5093876;28;20104;-67
2022/04/10 08:21:31;;;;;;;10.50;1.90;;;;;;;;;;5091188;28;20054;-68
2022/04/10 08:23:58;;;;;;;9.97;2.47;;;;;;;;;;5094343;28;20055;-67
2022/04/10 08:26:24;;;;;;;12.50;2.13;;;;;;;;;;5094012;28;20105;-67
2022/04/10 08:28:50;;;;;;;11.20;2.23;;;;;;;;;;5090069;28;20047;-68
2022/04/10 08:31:16;;;;;;;12.13;1.97;;;;;;;;;;5087937;28;20044;-67
2022/04/10 08:33:42;;;;;;;11.47;2.27;;;;;;;;;;5097625;28;20138;-68
2022/04/10 08:36:08;;;;;;;8.47;1.77;;;;;;;;;;5093246;28;20174;-67
2022/04/10 08:38:35;;;;;;;9.30;2.00;;;;;;;;;;5088797;28;20074;-67
2022/04/10 08:41:01;;;;;;;6.67;1.40;;;;;;;;;;5097175;28;20134;-67
2022/04/10 08:43:27;;;;;;;6.83;1.97;;;;;;;;;;5090604;28;20036;-67
2022/04/10 08:45:56;;;;;;;11.33;1.93;;;;;;;;;;5089434;28;20043;-67
2022/04/10 08:48:24;;;;;;;9.90;1.93;;;;;;;;;;5096735;28;20358;-67
2022/04/10 08:50:51;;;;;;;6.23;2.13;;;;;;;;;;5087802;28;20044;-67
2022/04/10 08:53:17;;;;;;;13.43;2.77;;;;;;;;;;5069410;28;20044;-68
2022/04/10 08:55:43;;;;;;;10.27;1.70;;;;;;;;;;5088051;28;20040;-68
2022/04/10 08:58:09;;;;;;;8.73;2.00;;;;;;;;;;5098414;28;20054;-68
2022/04/10 09:00:35;;;;;;;10.13;1.70;;;;;;;;;;5106715;28;20066;-68
2022/04/10 09:03:01;;;;;;;10.17;2.23;;;;;;;;;;5100067;28;20497;-68
2022/04/10 09:05:27;;;;;;;13.77;2.57;;;;;;;;;;5096266;28;20039;-68
2022/04/10 09:08:06;;;;;;;7.67;2.10;;;;;;;;;;5108862;28;20122;-67
2022/04/10 09:10:52;;;;;;;7.50;2.10;;;;;;;;;;5098227;28;20059;-67
2022/04/10 09:13:30;;;;;;;9.00;2.03;;;;;;;;;;5088105;28;20119;-68
2022/04/10 09:16:10;;;;;;;9.20;1.77;;;;;;;;;;5090967;28;20051;-68
2022/04/10 09:18:48;;;;;;;8.33;1.80;;;;;;;;;;5105156;28;20036;-68
2022/04/10 09:21:14;;;;;;;6.93;1.37;;;;;;;;;;5105687;28;20047;-68
2022/04/10 09:23:41;;;;;;;7.77;1.80;;;;;;;;;;5098124;28;20142;-68
2022/04/10 09:26:07;;;;;;;7.30;1.83;;;;;;;;;;5096669;28;20117;-68
2022/04/10 09:28:47;;;;;;;11.13;2.07;;;;;;;;;;5093857;28;20044;-68
2022/04/10 09:31:29;;;;;;;10.83;3.10;;;;;;;;;;5090494;28;20035;-68
2022/04/10 09:33:56;;;;;;;10.30;2.43;;;;;;;;;;5087939;28;20052;-68
2022/04/10 09:36:29;;;;;;;9.17;2.10;;;;;;;;;;5088614;28;20044;-68
2022/04/10 09:38:55;;;;;;;13.50;3.00;;;;;;;;;;5097321;28;20810;-68
2022/04/10 09:41:21;;;;;;;6.90;1.83;;;;;;;;;;5107607;28;20048;-68
2022/04/10 09:43:48;;;;;;;6.80;1.50;;;;;;;;;;5108012;28;20042;-68
2022/04/10 09:46:14;;;;;;;9.07;1.60;;;;;;;;;;5097967;28;20129;-68
2022/04/10 09:48:40;;;;;;;5.80;1.87;;;;;;;;;;5099654;28;20506;-68
2022/04/10 09:51:06;;;;;;;9.17;1.97;;;;;;;;;;5098290;28;20078;-67
2022/04/10 09:53:33;;;;;;;9.70;1.90;;;;;;;;;;5090822;28;20045;-68
2022/04/10 09:56:04;;;;;;;9.87;1.90;;;;;;;;;;5101243;28;20426;-68
2022/04/10 09:58:31;;;;;;;8.73;2.23;;;;;;;;;;5088281;28;20084;-68
2022/04/10 10:00:57;;;;;;;9.67;1.87;;;;;;;;;;5088965;28;20087;-68
2022/04/10 10:03:25;;;;;;;13.43;1.70;;;;;;;;;;5080058;28;20911;-68
2022/04/10 10:05:54;;;;;;;13.20;3.30;;;;;;;;;;5077366;28;20051;-68
2022/04/10 10:08:20;;;;;;;8.57;1.63;;;;;;;;;;5091811;28;20498;-67
2022/04/10 10:10:47;;;;;;;6.97;1.40;;;;;;;;;;5084715;28;20044;-68
2022/04/10 10:13:13;;;;;;;5.90;1.40;;;;;;;;;;5091249;28;20127;-68
2022/04/10 10:15:40;;;;;;;10.40;2.17;;;;;;;;;;5100404;28;20414;-68
2022/04/10 10:18:08;;;;;;;10.57;1.83;;;;;;;;;;5099443;28;20040;-71
2022/04/10 10:20:34;;;;;;;10.30;2.10;;;;;;;;;;5100548;28;20043;-70
2022/04/10 10:23:01;;;;;;;6.73;1.73;;;;;;;;;;5091855;28;20055;-70
2022/04/10 10:25:42;;;;;;;9.37;1.40;;;;;;;;;;5091802;28;20264;-70
2022/04/10 10:28:08;;;;;;;7.00;1.80;;;;;;;;;;5095532;28;20082;-70
2022/04/10 10:30:53;;;;;;;6.67;1.60;;;;;;;;;;5097908;28;20459;-70
2022/04/10 10:33:23;;;;;;;6.37;1.27;;;;;;;;;;5087275;28;20044;-70
2022/04/10 10:35:55;;;;;;;4.23;1.40;;;;;;;;;;5080493;28;20056;-70
2022/04/10 10:38:21;;;;;;;5.87;1.60;;;;;;;;;;5065243;28;20101;-70
2022/04/10 10:40:48;;;;;;;9.17;1.80;;;;;;;;;;5100033;28;20044;-69
2022/04/10 10:43:18;;;;;;;7.13;1.83;;;;;;;;;;5101062;28;20123;-68
2022/04/10 10:45:44;;;;;;;7.77;2.43;;;;;;;;;;5103833;28;20074;-68
2022/04/10 10:48:42;;;;;;;3.70;1.20;;;;;;;;;;5090576;28;20059;-68
2022/04/10 10:51:11;;;;;;;5.50;1.03;;;;;;;;;;5052015;28;20489;-68
2022/04/10 10:53:41;;;;;;;5.60;1.40;;;;;;;;;;5089789;28;20611;-69
2022/04/10 10:56:12;;;;;;;7.17;1.90;;;;;;;;;;5095700;28;20393;-69
2022/04/10 10:58:40;;;;;;;9.00;1.60;;;;;;;;;;5110631;28;20047;-70
2022/04/10 11:01:07;;;;;;;8.57;1.60;;;;;;;;;;5102728;28;20356;-68
2022/04/10 11:03:33;;;;;;;10.57;1.73;;;;;;;;;;5089433;28;20047;-68
2022/04/10 11:06:06;;;;;;;7.53;1.00;;;;;;;;;;5089763;28;20044;-68
2022/04/10 11:08:41;;;;;;;6.05;1.30;;;;;;;;;;5089835;28;20044;-68
2022/04/10 11:11:07;;;;;;;5.37;1.17;;;;;;;;;;5090394;28;20040;-68
2022/04/10 11:13:42;;;;;;;3.83;1.23;;;;;;;;;;5089420;28;20040;-68
2022/04/10 11:16:11;;;;;;;5.40;1.50;;;;;;;;;;5089771;28;20048;-68
2022/04/10 11:18:44;;;;;;;6.90;1.27;;;;;;;;;;5090178;28;20040;-68
2022/04/10 11:21:15;;;;;;;6.03;0.90;;;;;;;;;;5055180;28;20521;-69
2022/04/10 11:23:45;;;;;;;8.43;1.60;;;;;;;;;;5089613;28;20175;-69
2022/04/10 11:26:34;;;;;;;5.90;1.30;;;;;;;;;;5089736;28;20130;-69
2022/04/10 11:29:04;;;;;;;5.97;1.40;;;;;;;;;;5089908;28;20670;-68
2022/04/10 11:31:39;;;;;;;4.73;1.63;;;;;;;;;;5089945;28;20055;-68
2022/04/10 11:34:34;;;;;;;5.47;1.13;;;;;;;;;;5089932;28;20510;-68
2022/04/10 11:37:03;;;;;;;6.10;1.10;;;;;;;;;;5068203;28;20075;-68
2022/04/10 11:39:31;;;;;;;6.70;1.30;;;;;;;;;;5089727;28;20434;-68
2022/04/10 11:41:58;;;;;;;4.87;1.60;;;;;;;;;;5089791;28;20052;-68
2022/04/10 11:44:25;;;;;;;4.53;1.03;;;;;;;;;;5090145;28;20076;-68
2022/04/10 11:46:51;;;;;;;7.40;1.50;;;;;;;;;;5089417;28;20399;-68
2022/04/10 11:49:18;;;;;;;6.20;1.23;;;;;;;;;;5054609;28;20044;-68
2022/04/10 11:51:51;;;;;;;6.33;1.67;;;;;;;;;;5071465;28;20039;-68
2022/04/10 11:54:28;;;;;;;6.95;0.93;;;;;;;;;;5071404;28;20055;-67
2022/04/10 11:56:54;;;;;;;4.50;1.20;;;;;;;;;;5089589;28;20055;-68
2022/04/10 11:59:21;;;;;;;6.37;1.97;;;;;;;;;;5071390;28;20052;-68
2022/04/10 12:01:48;;;;;;;4.03;1.10;;;;;;;;;;5089512;28;20080;-67
2022/04/10 12:04:16;;;;;;;8.60;1.73;;;;;;;;;;5089155;28;20048;-68
2022/04/10 12:06:42;;;;;;;5.53;1.33;;;;;;;;;;5071216;28;20629;-68
2022/04/10 12:09:08;;;;;;;6.33;2.00;;;;;;;;;;5088942;28;20130;-68
2022/04/10 12:11:38;;;;;;;6.30;1.50;;;;;;;;;;5089228;28;20040;-68
2022/04/10 12:14:14;;;;;;;6.97;1.20;;;;;;;;;;5088962;28;20070;-68
2022/04/10 12:16:41;;;;;;;7.10;1.33;;;;;;;;;;5089357;28;20581;-67
2022/04/10 12:19:07;;;;;;;5.43;1.50;;;;;;;;;;5088835;28;20097;-68
2022/04/10 12:21:33;;;;;;;5.00;1.37;;;;;;;;;;5070845;28;20097;-68
2022/04/10 12:24:02;;;;;;;7.13;1.23;;;;;;;;;;5089013;28;20094;-67
2022/04/10 12:26:29;;;;;;;7.40;1.50;;;;;;;;;;5088971;28;20109;-67
2022/04/10 12:28:55;;;;;;;5.23;1.20;;;;;;;;;;5088947;28;20051;-67
2022/04/10 12:31:21;;;;;;;5.63;1.30;;;;;;;;;;5088976;28;20444;-67
2022/04/10 12:33:47;;;;;;;6.60;1.10;;;;;;;;;;5088794;28;20155;-67
2022/04/10 12:36:17;;;;;;;5.33;1.40;;;;;;;;;;5088271;28;20509;-68
2022/04/10 12:38:43;;;;;;;4.97;1.30;;;;;;;;;;5088879;28;20059;-67
2022/04/10 12:41:09;;;;;;;4.63;1.00;;;;;;;;;;5088379;28;20135;-68
2022/04/10 12:43:35;;;;;;;3.87;1.07;;;;;;;;;;5070660;28;20127;-67
2022/04/10 12:46:11;;;;;;;5.90;1.87;;;;;;;;;;5088626;28;20052;-67
2022/04/10 12:48:38;;;;;;;5.03;1.00;;;;;;;;;;5088802;28;20165;-67
2022/04/10 12:51:05;;;;;;;4.33;1.10;;;;;;;;;;5088553;28;20414;-67
2022/04/10 12:53:31;;;;;;;5.07;0.87;;;;;;;;;;5088400;28;20109;-67
2022/04/10 12:55:57;;;;;;;7.57;1.50;;;;;;;;;;5088639;28;20069;-67
2022/04/10 12:58:26;;;;;;;5.23;1.17;;;;;;;;;;5088280;28;20048;-67
2022/04/10 13:00:54;;;;;;;3.00;1.00;;;;;;;;;;5088784;28;20040;-67
2022/04/10 13:03:21;;;;;;;6.97;1.50;;;;;;;;;;5088576;28;20055;-67
2022/04/10 13:06:03;;;;;;;5.80;1.20;;;;;;;;;;5088160;28;20402;-67
2022/04/10 13:08:33;;;;;;;4.50;0.83;;;;;;;;;;5088538;28;20493;-67
2022/04/10 13:11:00;;;;;;;8.87;1.53;;;;;;;;;;5088321;28;20040;-66
2022/04/10 13:13:26;;;;;;;3.67;1.10;;;;;;;;;;5054032;28;20125;-67
2022/04/10 13:15:53;;;;;;;4.33;1.00;;;;;;;;;;5088205;28;20180;-68
2022/04/10 13:18:25;;;;;;;3.30;1.07;;;;;;;;;;5088335;28;20044;-67
2022/04/10 13:20:51;;;;;;;4.00;1.40;;;;;;;;;;5088301;28;20040;-68
2022/04/10 13:23:17;;;;;;;5.27;1.23;;;;;;;;;;5088550;28;20046;-67
2022/04/10 13:25:47;;;;;;;7.40;1.20;;;;;;;;;;5088523;28;20126;-67
2022/04/10 13:28:13;;;;;;;6.87;1.23;;;;;;;;;;5087862;28;20044;-67
2022/04/10 13:30:40;;;;;;;8.00;1.63;;;;;;;;;;5088191;28;20083;-67
2022/04/10 13:33:06;;;;;;;1.93;0.80;;;;;;;;;;5088053;28;20044;-67
2022/04/10 13:35:32;;;;;;;3.93;1.23;;;;;;;;;;5088023;28;20143;-67
2022/04/10 13:37:58;;;;;;;4.20;1.33;;;;;;;;;;5092302;28;20673;-67
2022/04/10 13:40:25;;;;;;;5.27;1.20;;;;;;;;;;5092213;28;20101;-67
2022/04/10 13:42:51;;;;;;;4.00;1.33;;;;;;;;;;5092021;28;20087;-67
2022/04/10 13:45:17;;;;;;;5.73;1.10;;;;;;;;;;5098883;28;20518;-67
2022/04/10 13:47:43;;;;;;;4.20;0.90;;;;;;;;;;5098263;28;20051;-67
2022/04/10 13:50:10;;;;;;;5.30;1.53;;;;;;;;;;5090985;28;20048;-67
2022/04/10 13:52:37;;;;;;;5.57;1.43;;;;;;;;;;5098012;28;20531;-66
2022/04/10 13:55:03;;;;;;;4.33;1.13;;;;;;;;;;5097290;28;20090;-67
2022/04/10 13:57:29;;;;;;;4.07;1.33;;;;;;;;;;5094274;28;20422;-67
2022/04/10 13:59:55;;;;;;;3.10;0.90;;;;;;;;;;5091905;28;20051;-67
2022/04/10 14:02:21;;;;;;;3.43;1.33;;;;;;;;;;5091301;28;20051;-67
2022/04/10 14:04:47;;;;;;;3.73;1.10;;;;;;;;;;5091439;28;20032;-67
2022/04/10 14:07:13;;;;;;;3.93;1.20;;;;;;;;;;5099128;28;20035;-67
2022/04/10 14:09:39;;;;;;;3.93;0.97;;;;;;;;;;5096113;28;20648;-66
2022/04/10 14:12:06;;;;;;;4.53;1.07;;;;;;;;;;5110414;28;20054;-67
2022/04/10 14:14:33;;;;;;;3.37;0.93;;;;;;;;;;5110359;28;20058;-67
2022/04/10 14:17:00;;;;;;;4.60;1.23;;;;;;;;;;5096398;28;20051;-67
2022/04/10 14:19:27;;;;;;;4.77;1.00;;;;;;;;;;5099929;28;20043;-67
2022/04/10 14:21:53;;;;;;;4.30;1.00;;;;;;;;;;5094220;28;20120;-67
2022/04/10 14:24:19;;;;;;;4.63;1.00;;;;;;;;;;5090893;28;20052;-67
2022/04/10 14:26:45;;;;;;;2.83;0.80;;;;;;;;;;5091877;28;20047;-68
2022/04/10 14:29:11;;;;;;;3.33;0.90;;;;;;;;;;5096855;28;20501;-67
2022/04/10 14:31:37;;;;;;;5.73;1.07;;;;;;;;;;5103598;28;20043;-67
2022/04/10 14:34:04;;;;;;;2.67;0.83;;;;;;;;;;5101260;28;20075;-67
2022/04/10 14:36:30;;;;;;;3.80;0.90;;;;;;;;;;5101930;28;20119;-67
2022/04/10 14:38:56;;;;;;;4.07;1.10;;;;;;;;;;5102635;28;20048;-67